Time;durP1;ratioP1;P1;durP2;ratioP2;P2;SDS_P1;SDS_P2;PMS_P1;PMS_P2;Temp;Humidity;BMP_temperature;BMP_pressure;BME280_temperature;BME280_humidity;BME280_pressure;Samples;Min_cycle;Max_cycle;Signal;HPM_P1;HPM_P2
2022/06/13 00:02:06;;;;;;;4.85;3.42;;;;;;;20.95;62.34;99858.16;4458951;32;34142;-74
2022/06/13 00:04:53;;;;;;;6.00;3.22;;;;;;;20.84;62.99;99857.19;4470779;32;34733;-74
2022/06/13 00:07:39;;;;;;;5.95;3.60;;;;;;;20.74;63.47;99850.28;4470561;32;35011;-75
2022/06/13 00:10:26;;;;;;;6.37;4.12;;;;;;;20.26;65.51;99855.44;4470664;32;34585;-74
2022/06/13 00:13:13;;;;;;;3.83;2.95;;;;;;;20.49;64.32;99858.22;4458840;32;35016;-74
2022/06/13 00:16:00;;;;;;;5.25;3.00;;;;;;;20.47;64.07;99848.63;4470467;32;35671;-75
2022/06/13 00:18:49;;;;;;;4.93;3.45;;;;;;;20.40;64.16;99846.53;4470593;32;34988;-74
2022/06/13 00:21:36;;;;;;;7.12;3.35;;;;;;;20.26;64.75;99849.06;4470611;32;34451;-74
2022/06/13 00:24:23;;;;;;;4.25;3.22;;;;;;;20.17;64.12;99847.31;4458688;32;35105;-74
2022/06/13 00:27:10;;;;;;;4.78;3.20;;;;;;;19.97;64.74;99838.22;4470603;32;34746;-74
2022/06/13 00:29:57;;;;;;;4.05;3.12;;;;;;;20.03;63.95;99841.50;4470553;32;34975;-74
2022/06/13 00:32:43;;;;;;;4.45;2.80;;;;;;;20.09;63.98;99828.91;4458382;32;34563;-74
2022/06/13 00:35:29;;;;;;;4.72;2.90;;;;;;;19.98;64.29;99833.50;4470564;32;34277;-74
2022/06/13 00:38:16;;;;;;;4.05;3.10;;;;;;;19.88;64.84;99829.34;4470629;32;35583;-74
2022/06/13 00:41:24;;;;;;;5.05;3.58;;;;;;;19.95;64.45;99825.87;4470201;32;35010;-75
2022/06/13 00:44:26;;;;;;;7.57;2.90;;;;;;;19.98;64.28;99823.16;4458725;32;34550;-74
2022/06/13 00:47:13;;;;;;;5.82;2.92;;;;;;;20.07;63.60;99822.94;4469732;32;34212;-74
2022/06/13 00:50:00;;;;;;;5.12;2.90;;;;;;;19.97;63.79;99815.19;4458372;32;35482;-74
2022/06/13 00:52:52;;;;;;;5.25;2.80;;;;;;;19.89;64.09;99824.56;4447851;32;34923;-74
2022/06/13 00:55:48;;;;;;;;;;;;;;;19.75;63.38;99819.53;4458683;32;35465;-74
2022/06/13 00:58:39;;;;;;;5.45;3.03;;;;;;;19.61;65.04;99822.84;4470391;32;34163;-74
2022/06/13 01:01:26;;;;;;;5.60;3.92;;;;;;;19.60;66.03;99812.09;4470512;32;35614;-74
2022/06/13 01:04:13;;;;;;;6.12;3.17;;;;;;;19.49;66.76;99815.44;4458735;32;35046;-74
2022/06/13 01:07:01;;;;;;;5.22;3.45;;;;;;;19.57;67.44;99807.25;4458424;32;34662;-74
2022/06/13 01:12:54;;;;;;;7.07;3.12;;;;;;;19.27;67.85;99796.75;4449583;32;35604;-74
2022/06/13 01:15:53;;;;;;;4.68;3.35;;;;;;;19.49;66.76;99795.19;4470174;32;35051;-74
2022/06/13 01:19:16;;;;;;;5.65;3.17;;;;;;;19.60;66.04;99796.19;4458321;32;35457;-74
2022/06/13 01:22:40;;;;;;;4.57;3.28;;;;;;;19.62;66.11;99799.44;4406114;32;34181;-74
2022/06/13 01:25:47;;;;;;;4.85;3.30;;;;;;;19.47;66.75;99797.56;4470028;32;34626;-74
2022/06/13 01:28:34;;;;;;;6.47;3.53;;;;;;;19.54;66.78;99792.12;4470204;32;35110;-74
2022/06/13 01:31:57;;;;;;;6.50;3.50;;;;;;;19.44;67.54;99792.69;4458578;32;34580;-74
2022/06/13 01:35:00;;;;;;;3.92;3.08;;;;;;;19.29;68.21;99797.97;4458259;32;34154;-74
2022/06/13 01:38:03;;;;;;;5.82;3.37;;;;;;;19.17;68.70;99784.25;4469974;32;35545;-74
2022/06/13 01:41:00;;;;;;;4.07;3.30;;;;;;;18.99;69.66;99788.63;4469624;32;35150;-74
2022/06/13 01:43:53;;;;;;;6.95;3.28;;;;;;;18.94;69.66;99783.38;4457929;32;35379;-74
2022/06/13 01:47:06;;;;;;;4.90;3.40;;;;;;;19.18;68.25;99796.97;4457872;32;34186;-74
2022/06/13 01:50:18;;;;;;;6.18;3.45;;;;;;;19.39;67.09;99790.25;4469500;32;34733;-74
2022/06/13 01:53:24;;;;;;;5.22;3.35;;;;;;;19.36;67.58;99786.22;4469429;32;36030;-74
2022/06/13 01:56:13;;;;;;;5.62;3.28;;;;;;;19.19;68.63;99786.66;4457763;32;34639;-74
2022/06/13 01:59:05;;;;;;;6.05;3.40;;;;;;;18.95;69.96;99776.62;4457816;32;35044;-74
2022/06/13 02:01:58;;;;;;;5.82;3.78;;;;;;;18.87;70.26;99773.72;4460059;32;34608;-74
2022/06/13 02:05:10;;;;;;;4.65;3.45;;;;;;;18.79;70.54;99773.94;4460600;32;34899;-74
2022/06/13 02:08:01;;;;;;;6.50;3.42;;;;;;;18.92;70.38;99769.81;4460251;32;34542;-73
2022/06/13 02:11:32;;;;;;;6.32;3.80;;;;;;;18.87;70.50;99765.37;4462341;32;34081;-74
2022/06/13 02:14:36;;;;;;;7.00;3.55;;;;;;;18.98;69.48;99773.94;4460079;32;34648;-73
2022/06/13 02:17:29;;;;;;;4.53;3.25;;;;;;;18.81;69.53;99772.41;4459650;32;34976;-74
2022/06/13 02:20:20;;;;;;;4.50;3.08;;;;;;;18.69;69.26;99775.25;4459577;32;34584;-73
2022/06/13 02:23:09;;;;;;;4.55;3.35;;;;;;;18.79;68.48;99774.72;4459667;32;35163;-74
2022/06/13 02:26:04;;;;;;;5.05;3.33;;;;;;;18.73;68.83;99769.78;4459488;32;35588;-74
2022/06/13 02:28:52;;;;;;;4.95;3.62;;;;;;;18.66;69.57;99781.53;4459463;32;35048;-74
2022/06/13 02:31:47;;;;;;;7.03;3.83;;;;;;;18.46;70.72;99775.13;4448516;32;34450;-74
2022/06/13 02:34:45;;;;;;;5.12;3.33;;;;;;;18.56;70.63;99782.09;4459425;32;35156;-74
2022/06/13 02:37:47;;;;;;;5.50;3.08;;;;;;;18.58;70.57;99768.66;4459534;32;34586;-73
2022/06/13 02:40:38;;;;;;;6.40;3.50;;;;;;;18.55;70.88;99780.47;4471064;32;35114;-73
2022/06/13 02:43:37;;;;;;;5.22;3.60;;;;;;;18.37;71.75;99772.53;4471228;32;35415;-73
2022/06/13 02:46:23;;;;;;;6.45;3.78;;;;;;;18.38;71.92;99774.13;4459302;32;34107;-74
2022/06/13 02:49:37;;;;;;;5.03;3.67;;;;;;;18.32;72.22;99772.81;4459217;32;34867;-73
2022/06/13 02:52:37;;;;;;;5.47;3.67;;;;;;;18.09;73.39;99763.53;4471046;32;34986;-74
2022/06/13 02:55:24;;;;;;;5.15;3.75;;;;;;;18.12;73.17;99768.34;4459282;32;35451;-74
2022/06/13 02:58:24;;;;;;;6.22;3.58;;;;;;;17.79;74.67;99771.47;4459809;32;35022;-73
2022/06/13 03:01:16;;;;;;;5.82;3.83;;;;;;;18.19;72.82;99774.91;4459325;32;34562;-73
2022/06/13 03:04:02;;;;;;;7.00;3.37;;;;;;;18.33;71.49;99777.22;4459268;32;34737;-74
2022/06/13 03:06:55;;;;;;;5.90;3.25;;;;;;;18.12;72.40;99768.34;4471078;32;35465;-74
2022/06/13 03:09:51;;;;;;;4.28;3.28;;;;;;;18.28;72.10;99766.38;4471143;32;35820;-73
2022/06/13 03:13:02;;;;;;;6.03;3.58;;;;;;;18.32;71.34;99767.25;4459212;32;34580;-74
2022/06/13 03:15:52;;;;;;;4.82;3.47;;;;;;;18.19;72.02;99763.81;4459432;32;35966;-74
2022/06/13 03:18:48;;;;;;;6.35;3.50;;;;;;;18.28;71.32;99768.34;4459134;32;34695;-73
2022/06/13 03:21:38;;;;;;;6.43;3.62;;;;;;;18.26;71.59;99771.47;4458988;32;34081;-74
2022/06/13 03:24:47;;;;;;;6.10;3.40;;;;;;;18.32;71.52;99772.81;4459122;32;35474;-74
2022/06/13 03:28:23;;;;;;;4.90;3.10;;;;;;;18.27;71.77;99778.66;4448297;32;35890;-74
2022/06/13 03:31:23;;;;;;;5.07;3.58;;;;;;;18.24;71.64;99765.47;4465763;32;35350;-73
2022/06/13 03:34:17;;;;;;;5.55;3.22;;;;;;;18.23;71.95;99769.44;4459377;32;35038;-74
2022/06/13 03:37:07;;;;;;;5.35;3.30;;;;;;;17.72;74.76;99766.53;4459204;32;34610;-74
2022/06/13 03:40:10;;;;;;;6.22;3.95;;;;;;;18.19;73.23;99766.56;4449327;32;35064;-74
2022/06/13 03:43:08;;;;;;;7.55;4.18;;;;;;;18.29;72.34;99762.44;4438867;32;35490;-74
2022/06/13 03:46:10;;;;;;;7.12;3.78;;;;;;;18.28;72.36;99760.84;4438766;32;34245;-73
2022/06/13 03:49:03;;;;;;;6.47;3.50;;;;;;;18.27;72.05;99758.41;4438817;32;35616;-73
2022/06/13 03:51:53;;;;;;;12.90;3.78;;;;;;;18.45;71.26;99754.09;4443293;32;34966;-74
2022/06/13 03:54:47;;;;;;;5.90;3.58;;;;;;;18.53;70.71;99753.09;4456181;32;33176;-73
2022/06/13 03:57:35;;;;;;;7.15;4.05;;;;;;;18.49;70.96;99768.84;4459393;32;35036;-74
2022/06/13 04:00:26;;;;;;;6.53;4.03;;;;;;;18.31;71.95;99760.13;4448087;32;34270;-74
2022/06/13 04:03:13;;;;;;;6.43;4.12;;;;;;;17.61;75.41;99759.91;4449599;32;34955;-74
2022/06/13 04:06:04;;;;;;;7.57;3.67;;;;;;;16.60;81.23;99762.56;4446301;32;34986;-73
2022/06/13 04:08:50;;;;;;;5.40;3.62;;;;;;;16.11;85.11;99762.59;4451783;32;34134;-73
2022/06/13 04:11:55;;;;;;;9.95;3.85;;;;;;;17.08;80.10;99749.78;4447204;32;34609;-74
2022/06/13 04:15:06;;;;;;;5.87;3.30;;;;;;;16.92;81.45;99767.47;4450219;32;35966;-74
2022/06/13 04:18:26;;;;;;;5.18;2.90;;;;;;;17.55;77.03;99751.03;4449824;32;34658;-74
2022/06/13 04:21:37;;;;;;;6.30;3.28;;;;;;;18.04;74.96;99744.38;4446194;32;34042;-74
2022/06/13 04:24:46;;;;;;;6.75;3.08;;;;;;;18.47;72.71;99748.19;4449255;32;34922;-74
2022/06/13 04:28:01;;;;;;;4.62;2.62;;;;;;;17.97;73.46;99756.13;4447782;32;35852;-73
2022/06/13 04:30:49;;;;;;;4.62;2.72;;;;;;;18.54;70.73;99759.44;4447518;32;35440;-73
2022/06/13 04:33:50;;;;;;;5.50;2.90;;;;;;;18.28;71.76;99763.63;4447201;32;35627;-74
2022/06/13 04:36:37;;;;;;;6.30;2.75;;;;;;;17.80;72.26;99762.81;4459430;32;34292;-74
2022/06/13 04:39:29;;;;;;;4.10;2.78;;;;;;;18.07;70.55;99760.31;4456323;32;35993;-73
2022/06/13 04:42:17;;;;;;;4.65;2.83;;;;;;;18.09;70.51;99763.53;4469198;31;34117;-73
2022/06/13 04:45:15;;;;;;;5.65;2.67;;;;;;;17.48;73.44;99759.97;4460021;32;34963;-74
2022/06/13 04:48:04;;;;;;;5.57;2.55;;;;;;;18.01;72.35;99767.28;4478789;32;35430;-74
2022/06/13 04:51:11;;;;;;;4.72;2.70;;;;;;;18.11;71.03;99762.00;4461063;32;33889;-73
2022/06/13 04:54:05;;;;;;;8.05;3.17;;;;;;;18.38;70.82;99754.72;4468106;32;35326;-73
2022/06/13 04:56:59;;;;;;;4.70;2.37;;;;;;;17.95;71.26;99756.47;4480129;32;34963;-73
2022/06/13 04:59:47;;;;;;;4.40;2.55;;;;;;;18.06;71.81;99761.47;4468354;32;34620;-73
2022/06/13 05:02:39;;;;;;;4.12;2.37;;;;;;;17.76;73.91;99756.34;4466917;31;34874;-74
2022/06/13 05:05:38;;;;;;;3.53;2.30;;;;;;;18.38;71.36;99759.47;4481499;32;35487;-73
2022/06/13 05:08:29;;;;;;;3.80;2.47;;;;;;;18.77;69.40;99760.41;4469554;32;34172;-74
2022/06/13 05:11:22;;;;;;;4.87;2.10;;;;;;;19.13;68.65;99761.16;4480434;32;34628;-73
2022/06/13 05:14:14;;;;;;;4.37;1.92;;;;;;;19.01;68.25;99752.94;4467575;32;34920;-73
2022/06/13 05:17:17;;;;;;;5.45;2.00;;;;;;;19.02;67.62;99754.59;4481602;32;35128;-73
2022/06/13 05:20:37;;;;;;;3.28;2.10;;;;;;;19.21;67.59;99751.81;4480294;31;34135;-73
2022/06/13 05:23:50;;;;;;;5.82;2.40;;;;;;;18.88;69.91;99755.88;4469294;32;34643;-73
2022/06/13 05:26:39;;;;;;;2.75;1.98;;;;;;;18.93;68.88;99763.13;4468659;32;34981;-73
2022/06/13 05:29:28;;;;;;;2.55;1.70;;;;;;;19.22;69.05;99769.28;4469302;32;35512;-73
2022/06/13 05:32:18;;;;;;;4.90;2.08;;;;;;;19.32;69.23;99763.94;4479530;31;34190;-73
2022/06/13 05:35:06;;;;;;;3.33;1.80;;;;;;;19.71;66.40;99763.88;4467159;32;34592;-74
2022/06/13 05:37:54;;;;;;;3.45;1.77;;;;;;;20.05;62.74;99761.28;4469175;32;35754;-74
2022/06/13 05:40:42;;;;;;;3.83;1.85;;;;;;;20.50;60.97;99765.19;4467283;31;34295;-74
2022/06/13 05:43:29;;;;;;;6.00;1.67;;;;;;;20.95;58.44;99754.31;4476237;31;35083;-74
2022/06/13 05:46:26;;;;;;;5.53;2.00;;;;;;;21.58;56.62;99752.69;4468893;32;34447;-75
2022/06/13 05:49:18;;;;;;;4.05;2.00;;;;;;;21.89;56.91;99754.97;4467075;31;34915;-74
2022/06/13 05:52:06;;;;;;;4.22;2.35;;;;;;;21.66;54.34;99749.59;4480789;32;34590;-73
2022/06/13 05:54:52;;;;;;;3.35;1.77;;;;;;;21.91;53.63;99758.16;4462982;32;34064;-74
2022/06/13 05:57:43;;;;;;;2.95;1.75;;;;;;;22.22;52.53;99750.47;4469795;32;34730;-74
2022/06/13 06:00:41;;;;;;;2.58;1.62;;;;;;;22.58;52.48;99747.94;4480872;31;35155;-74
2022/06/13 06:03:29;;;;;;;2.78;1.80;;;;;;;22.28;48.12;99743.34;4469373;32;34527;-73
2022/06/13 06:06:22;;;;;;;3.28;1.50;;;;;;;22.89;50.23;99749.31;4478126;31;34750;-74
2022/06/13 06:09:10;;;;;;;3.05;2.10;;;;;;;23.23;47.50;99749.87;4468364;32;34357;-75
2022/06/13 06:11:58;;;;;;;3.35;1.90;;;;;;;23.60;50.19;99748.78;4466418;32;35968;-74
2022/06/13 06:14:44;;;;;;;2.55;1.90;;;;;;;23.49;48.98;99748.75;4481199;32;34762;-74
2022/06/13 06:17:32;;;;;;;4.87;1.98;;;;;;;23.90;49.47;99748.44;4478652;32;35609;-74
2022/06/13 06:20:22;;;;;;;5.47;1.92;;;;;;;23.28;49.87;99740.31;4480756;31;35603;-73
2022/06/13 06:23:09;;;;;;;6.30;1.85;;;;;;;23.94;54.06;99735.28;4467491;32;34916;-74
2022/06/13 06:26:05;;;;;;;2.67;1.62;;;;;;;24.17;47.31;99737.66;4480326;32;35580;-74
2022/06/13 06:28:53;;;;;;;3.95;1.80;;;;;;;24.46;49.10;99738.44;4468810;32;33772;-74
2022/06/13 06:31:40;;;;;;;4.87;1.85;;;;;;;24.29;47.26;99749.66;4468413;32;35563;-74
2022/06/13 06:34:28;;;;;;;2.90;1.80;;;;;;;24.29;45.71;99738.47;4468562;32;35616;-75
2022/06/13 06:37:22;;;;;;;4.65;1.80;;;;;;;24.65;48.33;99750.44;4480896;32;35436;-74
2022/06/13 06:40:14;;;;;;;4.18;1.73;;;;;;;24.60;45.13;99751.63;4481332;31;33705;-74
2022/06/13 06:43:03;;;;;;;4.30;2.05;;;;;;;24.09;46.79;99749.25;4480925;31;34630;-74
2022/06/13 06:45:50;;;;;;;3.05;2.00;;;;;;;24.78;45.84;99742.37;4482245;31;35607;-74
2022/06/13 06:48:41;;;;;;;3.87;1.62;;;;;;;24.31;41.83;99752.84;4481905;32;34585;-75
2022/06/13 06:51:29;;;;;;;5.95;2.15;;;;;;;24.72;43.34;99749.59;4471391;32;33804;-74
2022/06/13 07:00:39;;;;;;;3.80;1.98;;;;;;;25.08;43.44;99745.47;4483514;32;35421;-75
2022/06/13 07:03:28;;;;;;;4.43;1.75;;;;;;;25.49;41.91;99742.09;4484050;32;35101;-74
2022/06/13 07:06:21;;;;;;;3.72;2.60;;;;;;;25.67;41.68;99743.97;4470056;32;35626;-74
2022/06/13 07:09:11;;;;;;;4.03;2.28;;;;;;;26.03;38.02;99752.97;4483720;31;34981;-74
2022/06/13 07:11:59;;;;;;;3.83;2.42;;;;;;;25.80;39.39;99742.28;4482698;32;34539;-74
2022/06/13 07:14:47;;;;;;;3.50;2.25;;;;;;;25.61;40.64;99748.44;4483671;32;34225;-75
2022/06/13 07:17:41;;;;;;;4.45;2.75;;;;;;;26.11;44.93;99745.28;4481775;32;34583;-74
2022/06/13 07:20:28;;;;;;;4.62;2.67;;;;;;;26.02;42.39;99751.38;4471456;32;34929;-75
2022/06/13 07:23:14;;;;;;;4.60;2.10;;;;;;;26.21;40.16;99738.78;4482214;31;35503;-75
2022/06/13 07:26:02;;;;;;;4.90;2.60;;;;;;;26.56;40.71;99737.69;4483307;31;34125;-74
2022/06/13 07:28:50;;;;;;;11.35;4.57;;;;;;;26.31;41.84;99734.28;4472192;32;33650;-74
2022/06/13 07:31:44;;;;;;;4.60;2.42;;;;;;;26.56;45.13;99739.69;4483703;32;34947;-74
2022/06/13 07:34:32;;;;;;;;;;;;;;;25.53;40.88;99737.28;4471333;31;35508;-75
2022/06/13 07:40:30;;;;;;;3.17;2.40;;;;;;;25.38;40.13;99734.94;4460725;32;35618;-74
2022/06/13 10:32:38;;;;;;;5.22;3.22;;;;;;;29.44;32.82;99616.16;4258157;33;128095;-72
2022/06/13 10:35:50;;;;;;;5.55;3.50;;;;;;;29.08;33.53;99612.13;4235037;33;35567;-73
2022/06/13 10:38:45;;;;;;;4.22;3.22;;;;;;;29.53;34.00;99605.81;4230307;33;35048;-72
2022/06/13 10:41:36;;;;;;;5.00;3.53;;;;;;;29.53;33.47;99605.81;4218032;33;34545;-70
2022/06/13 10:44:21;;;;;;;5.87;3.62;;;;;;;28.32;35.58;99608.47;4244503;33;33637;-72
2022/06/13 10:47:30;;;;;;;5.35;3.35;;;;;;;29.02;35.67;99594.09;4235875;33;34583;-71
2022/06/13 10:50:29;;;;;;;5.57;3.50;;;;;;;28.52;35.52;99606.50;4242438;33;34687;-71
2022/06/13 10:53:20;;;;;;;5.03;4.03;;;;;;;29.57;35.07;99595.25;4221617;33;34133;-71
2022/06/13 10:56:27;;;;;;;5.30;3.47;;;;;;;29.07;34.39;99590.78;4244321;33;34079;-73
2022/06/13 10:59:34;;;;;;;5.05;3.40;;;;;;;30.43;35.90;99576.00;4231471;33;34221;-71
2022/06/13 11:02:27;;;;;;;6.72;3.53;;;;;;;29.30;32.96;99580.59;4244668;33;35972;-72
2022/06/13 11:05:23;;;;;;;4.68;2.97;;;;;;;30.02;33.60;99576.72;4244929;33;35528;-73
2022/06/13 11:11:29;;;;;;;5.18;3.12;;;;;;;30.59;33.49;99566.66;4459950;32;34683;-71
2022/06/13 11:14:37;;;;;;;3.67;2.92;;;;;;;30.24;31.96;99563.62;4443998;32;36019;-71
2022/06/13 11:23:54;;;;;;;4.82;4.07;;;;;;;27.57;36.09;99566.34;4448577;32;34269;-69
2022/06/13 11:30:27;;;;;;;5.25;3.90;;;;;;;26.90;40.38;99563.41;4461193;32;34448;-70
2022/06/13 11:33:27;;;;;;;9.98;4.12;;;;;;;26.99;41.86;99564.88;4461023;32;34156;-72
2022/06/13 11:36:14;;;;;;;6.00;4.00;;;;;;;27.07;42.39;99555.12;4461414;32;34255;-71
2022/06/13 11:39:05;;;;;;;6.03;4.18;;;;;;;27.73;42.14;99557.25;4451046;32;35068;-70
2022/06/13 11:41:57;;;;;;;6.20;3.95;;;;;;;27.23;42.78;99555.28;4451145;32;34602;-71
2022/06/13 11:44:51;;;;;;;5.43;3.95;;;;;;;28.06;41.26;99559.47;4450744;32;34191;-72
2022/06/13 11:47:48;;;;;;;7.78;4.53;;;;;;;27.97;41.59;99554.41;4450151;32;34717;-71
2022/06/13 11:50:44;;;;;;;7.25;4.68;;;;;;;27.95;41.71;99551.22;4451928;32;34985;-71
2022/06/13 11:53:38;;;;;;;6.45;4.37;;;;;;;27.97;41.93;99543.16;4449882;32;34165;-71
2022/06/13 11:56:33;;;;;;;6.37;4.45;;;;;;;28.20;41.56;99545.09;4449359;32;35078;-71
2022/06/13 11:59:21;;;;;;;5.65;4.22;;;;;;;27.19;43.52;99537.69;4450969;32;35415;-71
2022/06/13 12:02:22;;;;;;;8.27;4.28;;;;;;;27.25;40.66;99535.97;4450121;32;35903;-73
2022/06/13 12:05:31;;;;;;;7.22;4.20;;;;;;;28.35;41.61;99525.91;4451396;32;34276;-71
2022/06/13 12:08:25;;;;;;;6.20;4.40;;;;;;;28.20;40.24;99531.81;4450374;32;34682;-71
2022/06/13 12:11:17;;;;;;;4.97;4.22;;;;;;;27.72;41.52;99529.50;4451627;32;34501;-72
2022/06/13 12:14:08;;;;;;;5.03;3.87;;;;;;;28.56;40.43;99522.63;4450650;32;35061;-71
2022/06/13 12:17:05;;;;;;;8.68;3.42;;;;;;;28.51;37.07;99517.50;4449844;32;34033;-71
2022/06/13 12:23:08;;;;;;;6.62;3.72;;;;;;;27.69;38.28;99510.69;4451668;32;34593;-69
2022/06/13 12:26:28;;;;;;;4.60;3.67;;;;;;;27.87;38.28;99511.19;4451648;32;33922;-70
2022/06/13 12:29:54;;;;;;;8.00;4.05;;;;;;;27.59;38.81;99507.63;4449965;32;35128;-70
2022/06/13 12:32:52;;;;;;;6.07;3.50;;;;;;;27.95;38.75;99500.53;4450689;32;35042;-70
2022/06/13 12:36:19;;;;;;;5.32;3.55;;;;;;;27.87;36.18;99499.13;4450464;32;35498;-75
2022/06/13 12:39:22;;;;;;;5.12;3.50;;;;;;;28.69;35.91;99503.03;4451022;32;35997;-74
2022/06/13 12:42:28;;;;;;;5.47;3.85;;;;;;;29.17;35.92;99495.84;4449689;32;35430;-72
2022/06/13 12:45:46;;;;;;;4.85;3.92;;;;;;;29.44;36.26;99486.31;4450546;32;34737;-72
2022/06/13 12:48:45;;;;;;;5.57;4.18;;;;;;;29.69;35.99;99489.28;4449436;32;34727;-71
2022/06/13 12:52:01;;;;;;;4.72;3.60;;;;;;;29.31;35.60;99487.03;4449834;32;35563;-72
2022/06/13 12:54:58;;;;;;;8.10;5.65;;;;;;;29.22;35.22;99475.56;4449266;32;34625;-70
2022/06/13 12:58:29;;;;;;;7.25;5.10;;;;;;;28.28;41.41;99500.69;4450311;32;34055;-71
2022/06/13 13:01:28;;;;;;;8.40;4.82;;;;;;;28.31;43.13;99489.34;4451310;32;34615;-70
2022/06/13 13:04:41;;;;;;;9.32;5.57;;;;;;;27.97;44.04;99492.47;4449829;32;34720;-70
2022/06/13 13:11:17;;;;;;;7.85;5.70;;;;;;;27.82;44.27;99502.44;4439802;32;34064;-71
2022/06/13 13:14:43;;;;;;;8.70;5.75;;;;;;;27.58;44.86;99500.44;4449849;32;34642;-70
2022/06/13 13:18:05;;;;;;;10.43;5.97;;;;;;;27.54;45.40;99504.53;4450576;32;35933;-72
2022/06/13 13:21:12;;;;;;;7.68;5.47;;;;;;;27.78;44.50;99500.47;4450792;32;34520;-70
2022/06/13 13:28:00;;;;;;;11.73;5.85;;;;;;;27.44;46.26;99500.69;4439097;32;35211;-70
2022/06/13 13:30:57;;;;;;;8.32;5.50;;;;;;;26.81;47.33;99515.34;4449591;32;34506;-71
2022/06/13 13:34:16;;;;;;;6.22;5.15;;;;;;;25.88;47.01;99522.13;4417478;32;34568;-72
2022/06/13 13:37:20;;;;;;;7.72;4.90;;;;;;;25.99;48.13;99517.19;4418904;32;34978;-70
2022/06/13 13:40:21;;;;;;;8.55;5.18;;;;;;;25.57;45.62;99530.44;4419819;32;33583;-70
2022/06/13 13:43:35;;;;;;;11.93;5.07;;;;;;;25.63;46.91;99518.78;4417694;32;34932;-71
2022/06/13 13:47:12;;;;;;;6.65;5.32;;;;;;;26.12;47.04;99513.84;4419161;32;34480;-71
2022/06/13 13:50:23;;;;;;;7.25;4.80;;;;;;;26.47;46.35;99513.37;4419639;32;34975;-69
2022/06/13 13:53:24;;;;;;;6.25;5.10;;;;;;;25.85;46.05;99511.75;4418623;32;34477;-71
2022/06/13 13:56:28;;;;;;;10.20;4.53;;;;;;;25.26;47.12;99509.09;4419207;32;35033;-70
2022/06/13 13:59:24;;;;;;;5.95;4.95;;;;;;;25.21;47.66;99518.72;4419453;32;34506;-70
2022/06/13 14:02:37;;;;;;;7.60;4.40;;;;;;;25.43;48.52;99502.53;4418059;32;34117;-69
2022/06/13 14:05:31;;;;;;;6.72;4.93;;;;;;;25.12;48.34;99505.16;4428688;32;34999;-70
2022/06/13 14:14:17;;;;;;;7.70;5.00;;;;;;;25.49;49.24;99505.66;4418206;32;34004;-70
2022/06/13 14:17:12;;;;;;;6.90;4.95;;;;;;;25.80;48.28;99492.53;4419623;32;34759;-71
2022/06/13 14:20:10;;;;;;;7.18;4.43;;;;;;;26.11;47.79;99479.34;4418078;32;34787;-71
2022/06/13 14:23:06;;;;;;;6.95;4.82;;;;;;;26.59;48.04;99469.91;4417652;32;35425;-71
2022/06/13 14:26:44;;;;;;;7.80;5.57;;;;;;;27.05;46.75;99468.37;4418520;32;33704;-72
2022/06/13 14:29:43;;;;;;;7.82;5.18;;;;;;;26.99;47.39;99466.47;4417456;32;33677;-70
2022/06/13 14:32:37;;;;;;;8.75;5.00;;;;;;;26.79;47.11;99467.19;4435822;32;35026;-69
2022/06/13 14:35:48;;;;;;;8.30;4.62;;;;;;;26.14;49.24;99469.28;4448272;32;33992;-71
2022/06/13 14:38:43;;;;;;;5.65;4.60;;;;;;;26.01;48.63;99474.66;4448691;32;35008;-70
2022/06/13 14:44:42;;;;;;;7.25;3.92;;;;;;;26.52;46.61;99474.81;4448695;32;34930;-70
2022/06/13 14:47:53;;;;;;;5.68;3.75;;;;;;;26.25;46.17;99467.94;4447176;32;35406;-72
2022/06/13 14:51:11;;;;;;;6.00;3.58;;;;;;;26.74;45.36;99469.69;4448238;32;35079;-72
2022/06/13 14:54:03;;;;;;;5.05;3.37;;;;;;;26.47;46.05;99467.66;4436446;32;34536;-70
2022/06/13 14:56:50;;;;;;;7.78;3.78;;;;;;;25.22;48.08;99478.28;4448082;32;35139;-70
2022/06/13 15:03:21;;;;;;;3.87;3.12;;;;;;;25.28;48.12;99476.63;4448849;32;33992;-71
2022/06/13 15:06:11;;;;;;;3.70;2.40;;;;;;;25.64;47.84;99483.88;4449112;32;34745;-69
2022/06/13 15:09:28;;;;;;;4.50;2.67;;;;;;;25.23;47.01;99485.47;4448785;32;35072;-72
2022/06/13 15:12:30;;;;;;;3.80;2.50;;;;;;;25.19;47.41;99495.12;4447913;32;34745;-70
2022/06/13 15:15:23;;;;;;;5.28;2.22;;;;;;;25.04;47.88;99489.59;4451001;32;34094;-71
2022/06/13 15:18:18;;;;;;;4.37;2.05;;;;;;;25.52;47.51;99488.00;4449155;32;34633;-70
2022/06/13 15:21:12;;;;;;;4.45;1.95;;;;;;;25.92;45.65;99489.19;4451431;32;35927;-71
2022/06/13 15:24:11;;;;;;;4.68;1.92;;;;;;;25.33;47.18;99486.59;4450817;32;34651;-70
2022/06/13 15:27:10;;;;;;;4.15;1.92;;;;;;;25.54;45.62;99492.00;4450109;32;34066;-71
2022/06/13 15:30:08;;;;;;;3.12;2.00;;;;;;;25.25;46.22;99487.88;4449721;32;34672;-70
2022/06/13 15:33:09;;;;;;;5.78;2.55;;;;;;;25.41;46.04;99493.72;4449687;32;35156;-70
2022/06/13 15:36:13;;;;;;;4.32;2.33;;;;;;;25.57;45.83;99490.37;4448721;32;34121;-71
2022/06/13 15:39:00;;;;;;;3.17;1.98;;;;;;;25.20;47.43;99488.31;4447214;32;34132;-69
2022/06/13 15:41:57;;;;;;;4.20;1.80;;;;;;;24.90;48.47;99487.72;4445923;32;35602;-71
2022/06/13 15:44:47;;;;;;;2.47;1.70;;;;;;;25.26;46.83;99489.47;4448450;32;36003;-72
2022/06/13 15:47:46;;;;;;;3.35;1.95;;;;;;;25.88;45.04;99488.47;4456579;32;33314;-69
2022/06/13 15:50:34;;;;;;;2.08;1.75;;;;;;;25.32;46.50;99496.22;4448031;32;35010;-72
2022/06/13 15:53:31;;;;;;;3.92;2.60;;;;;;;25.63;45.13;99487.91;4447925;32;34621;-70
2022/06/13 15:57:01;;;;;;;4.07;2.00;;;;;;;25.68;45.70;99490.25;4446786;32;35457;-70
2022/06/13 15:59:55;;;;;;;3.03;1.92;;;;;;;25.74;45.10;99494.19;4446427;32;35270;-70
2022/06/13 16:02:47;;;;;;;6.03;2.15;;;;;;;25.87;45.40;99492.50;4446094;32;33615;-72
2022/06/13 16:11:32;;;;;;;2.78;1.60;;;;;;;26.23;44.17;99484.41;4451654;32;33579;-79
2022/06/13 16:14:28;;;;;;;3.10;1.73;;;;;;;26.40;42.73;99479.75;4449501;32;33673;-77
2022/06/13 16:17:37;;;;;;;2.05;1.80;;;;;;;25.64;44.32;99472.66;4447274;32;34561;-77
2022/06/13 16:20:38;;;;;;;2.00;1.60;;;;;;;26.48;43.68;99469.22;4448742;32;34811;-79
2022/06/13 16:23:31;;;;;;;4.87;1.70;;;;;;;25.78;43.03;99492.94;4450614;32;35076;-78
2022/06/13 16:26:26;;;;;;;3.97;1.60;;;;;;;25.47;43.46;99480.88;4450937;32;34158;-78
2022/06/13 16:32:29;;;;;;;3.70;1.55;;;;;;;25.15;44.25;99481.13;4452083;32;35019;-79
2022/06/13 16:35:42;;;;;;;3.40;1.80;;;;;;;24.86;43.78;99480.56;4450183;32;34640;-78
2022/06/13 16:41:56;;;;;;;6.40;2.20;;;;;;;25.16;44.32;99493.16;4450509;32;34259;-79
2022/06/13 16:44:49;;;;;;;3.70;1.85;;;;;;;24.88;44.90;99492.94;4448877;32;33748;-78
2022/06/13 16:51:02;;;;;;;3.78;1.98;;;;;;;24.48;45.99;99502.81;4448799;32;33628;-78
2022/06/13 16:53:52;;;;;;;6.10;1.90;;;;;;;24.31;46.49;99512.06;4450147;32;34605;-77
2022/06/13 16:56:54;;;;;;;3.03;2.00;;;;;;;24.50;46.06;99497.59;4448768;32;35918;-78
2022/06/13 17:06:00;;;;;;;3.47;2.00;;;;;;;24.80;46.06;99504.63;4447659;32;34686;-77
2022/06/13 17:09:25;;;;;;;3.47;1.90;;;;;;;24.34;47.26;99522.47;4449227;32;35585;-77
2022/06/13 17:12:15;;;;;;;3.10;2.08;;;;;;;24.47;47.46;99520.81;4449746;32;34500;-78
2022/06/13 17:15:09;;;;;;;3.78;2.40;;;;;;;24.72;46.84;99531.88;4449208;32;34152;-78
2022/06/13 17:18:14;;;;;;;6.00;2.17;;;;;;;24.45;47.51;99540.03;4449551;32;34725;-78
2022/06/13 17:21:17;;;;;;;2.85;1.80;;;;;;;24.35;47.46;99535.25;4449250;32;34865;-78
2022/06/13 17:24:06;;;;;;;4.35;2.00;;;;;;;24.48;47.59;99544.81;4450463;32;34704;-77
2022/06/13 17:39:37;;;;;;;2.67;2.00;;;;;;;24.48;48.67;99560.81;4447495;32;34767;-79
2022/06/13 17:42:39;;;;;;;2.70;1.70;;;;;;;24.36;49.17;99550.81;4446418;32;35808;-79
2022/06/13 17:45:43;;;;;;;3.33;1.85;;;;;;;24.68;48.44;99559.91;4447413;32;35011;-79
2022/06/13 17:48:32;;;;;;;4.32;2.00;;;;;;;24.43;49.03;99553.63;4448152;32;35434;-79
2022/06/13 17:51:28;;;;;;;6.15;3.28;;;;;;;24.53;49.60;99561.19;4446911;32;34130;-78
2022/06/13 17:54:22;;;;;;;2.95;2.30;;;;;;;24.94;48.94;99565.38;4447779;32;34697;-79
2022/06/13 18:00:26;;;;;;;5.85;1.98;;;;;;;24.99;49.54;99578.94;4447333;32;34568;-79
2022/06/13 18:03:21;;;;;;;4.62;1.40;;;;;;;23.42;52.60;99613.72;4447804;32;34616;-80
2022/06/13 18:06:12;;;;;;;4.37;1.40;;;;;;;23.22;51.04;99644.06;4447907;32;35621;-79
2022/06/13 18:09:04;;;;;;;7.62;1.77;;;;;;;23.65;51.54;99663.66;4448301;32;35119;-78
2022/06/13 18:11:58;;;;;;;7.15;1.70;;;;;;;21.84;63.69;99665.28;4452672;32;34690;-78